sensor_id;sensor_type;location;lat;lon;timestamp;P1;durP1;ratioP1;P2;durP2;ratioP2
27201;SDS011;14717;46.924;15.474;2022-12-18T00:01:46;35.92;;;12.38;;
27201;SDS011;14717;46.924;15.474;2022-12-18T00:04:21;35.30;;;11.85;;
27201;SDS011;14717;46.924;15.474;2022-12-18T00:06:48;38.83;;;11.45;;
27201;SDS011;14717;46.924;15.474;2022-12-18T00:09:14;41.22;;;11.98;;
27201;SDS011;14717;46.924;15.474;2022-12-18T00:11:40;27.45;;;11.38;;
27201;SDS011;14717;46.924;15.474;2022-12-18T00:14:05;29.67;;;10.88;;
27201;SDS011;14717;46.924;15.474;2022-12-18T00:16:30;31.75;;;10.95;;
27201;SDS011;14717;46.924;15.474;2022-12-18T00:18:58;40.40;;;11.70;;
27201;SDS011;14717;46.924;15.474;2022-12-18T00:21:25;38.58;;;11.15;;
27201;SDS011;14717;46.924;15.474;2022-12-18T00:23:52;22.60;;;10.63;;
27201;SDS011;14717;46.924;15.474;2022-12-18T00:28:47;24.17;;;10.50;;
27201;SDS011;14717;46.924;15.474;2022-12-18T00:31:18;29.02;;;11.73;;
27201;SDS011;14717;46.924;15.474;2022-12-18T00:33:45;22.33;;;9.90;;
27201;SDS011;14717;46.924;15.474;2022-12-18T00:36:18;25.75;;;11.85;;
27201;SDS011;14717;46.924;15.474;2022-12-18T00:38:45;27.80;;;11.05;;
27201;SDS011;14717;46.924;15.474;2022-12-18T00:41:12;22.60;;;11.18;;
27201;SDS011;14717;46.924;15.474;2022-12-18T00:43:59;25.42;;;10.73;;
27201;SDS011;14717;46.924;15.474;2022-12-18T00:46:25;25.95;;;11.35;;
27201;SDS011;14717;46.924;15.474;2022-12-18T00:48:50;27.60;;;11.13;;
27201;SDS011;14717;46.924;15.474;2022-12-18T00:51:15;19.75;;;9.57;;
27201;SDS011;14717;46.924;15.474;2022-12-18T00:53:41;25.42;;;10.82;;
27201;SDS011;14717;46.924;15.474;2022-12-18T00:56:06;21.80;;;10.13;;
27201;SDS011;14717;46.924;15.474;2022-12-18T00:58:31;24.73;;;11.15;;
27201;SDS011;14717;46.924;15.474;2022-12-18T01:00:57;27.58;;;11.02;;
27201;SDS011;14717;46.924;15.474;2022-12-18T01:03:22;23.48;;;11.50;;
27201;SDS011;14717;46.924;15.474;2022-12-18T01:05:47;23.75;;;10.32;;
27201;SDS011;14717;46.924;15.474;2022-12-18T01:08:14;22.30;;;9.98;;
27201;SDS011;14717;46.924;15.474;2022-12-18T01:10:40;27.50;;;11.02;;
27201;SDS011;14717;46.924;15.474;2022-12-18T01:13:06;28.73;;;11.10;;
27201;SDS011;14717;46.924;15.474;2022-12-18T01:15:31;26.98;;;11.88;;
27201;SDS011;14717;46.924;15.474;2022-12-18T01:17:56;24.83;;;10.93;;
27201;SDS011;14717;46.924;15.474;2022-12-18T01:20:22;26.23;;;11.38;;
27201;SDS011;14717;46.924;15.474;2022-12-18T01:22:47;26.05;;;11.43;;
27201;SDS011;14717;46.924;15.474;2022-12-18T01:25:12;25.85;;;11.70;;
27201;SDS011;14717;46.924;15.474;2022-12-18T01:27:38;28.23;;;11.55;;
27201;SDS011;14717;46.924;15.474;2022-12-18T01:30:03;26.73;;;11.68;;
27201;SDS011;14717;46.924;15.474;2022-12-18T01:32:30;27.88;;;11.07;;
27201;SDS011;14717;46.924;15.474;2022-12-18T01:34:56;27.58;;;12.00;;
27201;SDS011;14717;46.924;15.474;2022-12-18T01:37:21;26.10;;;11.20;;
27201;SDS011;14717;46.924;15.474;2022-12-18T01:39:46;22.30;;;11.50;;
27201;SDS011;14717;46.924;15.474;2022-12-18T01:42:12;23.42;;;10.48;;
27201;SDS011;14717;46.924;15.474;2022-12-18T01:47:30;20.00;;;8.57;;
27201;SDS011;14717;46.924;15.474;2022-12-18T01:50:05;27.45;;;11.60;;
27201;SDS011;14717;46.924;15.474;2022-12-18T01:52:52;23.73;;;10.23;;
27201;SDS011;14717;46.924;15.474;2022-12-18T01:55:20;26.05;;;10.85;;
27201;SDS011;14717;46.924;15.474;2022-12-18T01:57:51;25.63;;;11.98;;
27201;SDS011;14717;46.924;15.474;2022-12-18T02:00:20;25.83;;;11.30;;
27201;SDS011;14717;46.924;15.474;2022-12-18T02:02:47;21.60;;;10.10;;
27201;SDS011;14717;46.924;15.474;2022-12-18T02:05:17;27.75;;;11.57;;
27201;SDS011;14717;46.924;15.474;2022-12-18T02:07:53;25.13;;;9.75;;
27201;SDS011;14717;46.924;15.474;2022-12-18T02:27:16;23.25;;;11.27;;
27201;SDS011;14717;46.924;15.474;2022-12-18T02:32:16;24.65;;;10.55;;
27201;SDS011;14717;46.924;15.474;2022-12-18T02:34:47;26.45;;;11.55;;
27201;SDS011;14717;46.924;15.474;2022-12-18T02:37:16;25.67;;;11.20;;
27201;SDS011;14717;46.924;15.474;2022-12-18T02:39:44;25.65;;;11.65;;
27201;SDS011;14717;46.924;15.474;2022-12-18T02:42:11;27.15;;;11.73;;
27201;SDS011;14717;46.924;15.474;2022-12-18T02:44:44;24.85;;;11.55;;
27201;SDS011;14717;46.924;15.474;2022-12-18T02:47:14;30.35;;;13.20;;
27201;SDS011;14717;46.924;15.474;2022-12-18T03:05:52;25.25;;;11.77;;
27201;SDS011;14717;46.924;15.474;2022-12-18T03:08:28;25.13;;;11.32;;
27201;SDS011;14717;46.924;15.474;2022-12-18T03:11:03;25.33;;;10.70;;
27201;SDS011;14717;46.924;15.474;2022-12-18T03:16:24;21.67;;;10.15;;
27201;SDS011;14717;46.924;15.474;2022-12-18T03:21:53;22.17;;;9.73;;
27201;SDS011;14717;46.924;15.474;2022-12-18T03:24:21;21.10;;;9.25;;
27201;SDS011;14717;46.924;15.474;2022-12-18T03:29:21;23.88;;;10.93;;
27201;SDS011;14717;46.924;15.474;2022-12-18T03:31:53;29.27;;;10.80;;
27201;SDS011;14717;46.924;15.474;2022-12-18T03:34:23;27.05;;;10.80;;
27201;SDS011;14717;46.924;15.474;2022-12-18T03:36:54;23.33;;;10.18;;
27201;SDS011;14717;46.924;15.474;2022-12-18T03:39:20;27.92;;;11.55;;
27201;SDS011;14717;46.924;15.474;2022-12-18T03:41:51;22.52;;;10.23;;
27201;SDS011;14717;46.924;15.474;2022-12-18T03:44:35;23.20;;;9.80;;
27201;SDS011;14717;46.924;15.474;2022-12-18T03:47:08;20.77;;;9.38;;
27201;SDS011;14717;46.924;15.474;2022-12-18T03:49:50;28.52;;;10.77;;
27201;SDS011;14717;46.924;15.474;2022-12-18T03:52:28;22.45;;;10.10;;
27201;SDS011;14717;46.924;15.474;2022-12-18T03:55:00;20.05;;;9.40;;
27201;SDS011;14717;46.924;15.474;2022-12-18T03:57:28;26.10;;;9.65;;
27201;SDS011;14717;46.924;15.474;2022-12-18T03:59:57;21.38;;;10.15;;
27201;SDS011;14717;46.924;15.474;2022-12-18T04:02:27;21.42;;;9.85;;
27201;SDS011;14717;46.924;15.474;2022-12-18T04:04:55;21.80;;;9.70;;
27201;SDS011;14717;46.924;15.474;2022-12-18T04:07:25;21.42;;;10.57;;
27201;SDS011;14717;46.924;15.474;2022-12-18T04:09:52;24.75;;;10.25;;
27201;SDS011;14717;46.924;15.474;2022-12-18T04:12:21;24.05;;;10.95;;
27201;SDS011;14717;46.924;15.474;2022-12-18T04:14:48;22.02;;;9.80;;
27201;SDS011;14717;46.924;15.474;2022-12-18T04:17:14;27.35;;;11.48;;
27201;SDS011;14717;46.924;15.474;2022-12-18T04:19:39;24.33;;;10.30;;
27201;SDS011;14717;46.924;15.474;2022-12-18T04:22:05;26.25;;;11.73;;
27201;SDS011;14717;46.924;15.474;2022-12-18T04:24:30;24.23;;;10.65;;
27201;SDS011;14717;46.924;15.474;2022-12-18T04:26:55;26.27;;;11.45;;
27201;SDS011;14717;46.924;15.474;2022-12-18T04:29:21;22.85;;;10.88;;
27201;SDS011;14717;46.924;15.474;2022-12-18T04:31:46;25.38;;;11.50;;
27201;SDS011;14717;46.924;15.474;2022-12-18T04:34:11;20.67;;;10.18;;
27201;SDS011;14717;46.924;15.474;2022-12-18T04:36:37;24.05;;;10.13;;
27201;SDS011;14717;46.924;15.474;2022-12-18T04:39:02;26.05;;;10.35;;
27201;SDS011;14717;46.924;15.474;2022-12-18T04:41:27;25.30;;;10.13;;
27201;SDS011;14717;46.924;15.474;2022-12-18T04:43:53;22.05;;;10.80;;
27201;SDS011;14717;46.924;15.474;2022-12-18T04:46:18;25.15;;;10.80;;
27201;SDS011;14717;46.924;15.474;2022-12-18T04:48:45;23.85;;;10.15;;
27201;SDS011;14717;46.924;15.474;2022-12-18T04:51:11;24.38;;;10.18;;
27201;SDS011;14717;46.924;15.474;2022-12-18T04:53:37;25.70;;;10.73;;
27201;SDS011;14717;46.924;15.474;2022-12-18T04:56:06;25.50;;;11.90;;
27201;SDS011;14717;46.924;15.474;2022-12-18T04:58:36;23.48;;;11.18;;
27201;SDS011;14717;46.924;15.474;2022-12-18T05:03:28;24.58;;;10.93;;
27201;SDS011;14717;46.924;15.474;2022-12-18T05:05:54;25.00;;;9.93;;
27201;SDS011;14717;46.924;15.474;2022-12-18T05:08:19;26.40;;;10.68;;
27201;SDS011;14717;46.924;15.474;2022-12-18T05:10:45;21.73;;;10.02;;
27201;SDS011;14717;46.924;15.474;2022-12-18T05:13:11;22.73;;;10.25;;
27201;SDS011;14717;46.924;15.474;2022-12-18T05:15:36;26.73;;;11.15;;
27201;SDS011;14717;46.924;15.474;2022-12-18T05:18:02;23.45;;;11.00;;
27201;SDS011;14717;46.924;15.474;2022-12-18T05:20:28;27.58;;;11.27;;
27201;SDS011;14717;46.924;15.474;2022-12-18T05:22:54;26.35;;;11.00;;
27201;SDS011;14717;46.924;15.474;2022-12-18T05:25:20;23.92;;;11.13;;
27201;SDS011;14717;46.924;15.474;2022-12-18T05:27:46;21.30;;;9.80;;
27201;SDS011;14717;46.924;15.474;2022-12-18T05:30:12;25.13;;;10.95;;
27201;SDS011;14717;46.924;15.474;2022-12-18T05:32:37;24.10;;;10.80;;
27201;SDS011;14717;46.924;15.474;2022-12-18T05:35:03;29.75;;;11.30;;
27201;SDS011;14717;46.924;15.474;2022-12-18T05:37:30;25.05;;;10.98;;
27201;SDS011;14717;46.924;15.474;2022-12-18T05:39:55;23.52;;;10.52;;
27201;SDS011;14717;46.924;15.474;2022-12-18T05:42:21;29.20;;;12.20;;
27201;SDS011;14717;46.924;15.474;2022-12-18T05:44:46;27.00;;;11.65;;
27201;SDS011;14717;46.924;15.474;2022-12-18T05:47:12;28.02;;;11.57;;
27201;SDS011;14717;46.924;15.474;2022-12-18T05:49:37;22.15;;;9.82;;
27201;SDS011;14717;46.924;15.474;2022-12-18T05:52:03;22.52;;;10.15;;
27201;SDS011;14717;46.924;15.474;2022-12-18T05:54:28;27.15;;;11.07;;
27201;SDS011;14717;46.924;15.474;2022-12-18T05:56:54;26.80;;;11.18;;
27201;SDS011;14717;46.924;15.474;2022-12-18T05:59:19;23.40;;;9.27;;
27201;SDS011;14717;46.924;15.474;2022-12-18T06:01:44;26.42;;;10.23;;
27201;SDS011;14717;46.924;15.474;2022-12-18T06:04:10;27.60;;;12.35;;
27201;SDS011;14717;46.924;15.474;2022-12-18T06:06:36;22.83;;;11.25;;
27201;SDS011;14717;46.924;15.474;2022-12-18T06:09:01;24.75;;;11.15;;
27201;SDS011;14717;46.924;15.474;2022-12-18T06:11:33;27.40;;;11.50;;
27201;SDS011;14717;46.924;15.474;2022-12-18T06:13:59;22.05;;;10.50;;
27201;SDS011;14717;46.924;15.474;2022-12-18T06:16:25;26.40;;;11.52;;
27201;SDS011;14717;46.924;15.474;2022-12-18T06:18:52;24.17;;;10.75;;
27201;SDS011;14717;46.924;15.474;2022-12-18T06:21:17;24.63;;;10.68;;
27201;SDS011;14717;46.924;15.474;2022-12-18T06:23:42;26.60;;;10.05;;
27201;SDS011;14717;46.924;15.474;2022-12-18T06:26:09;22.08;;;10.63;;
27201;SDS011;14717;46.924;15.474;2022-12-18T06:28:36;25.02;;;11.20;;
27201;SDS011;14717;46.924;15.474;2022-12-18T06:31:04;21.83;;;10.68;;
27201;SDS011;14717;46.924;15.474;2022-12-18T06:33:30;22.38;;;10.88;;
27201;SDS011;14717;46.924;15.474;2022-12-18T06:35:59;27.50;;;10.95;;
27201;SDS011;14717;46.924;15.474;2022-12-18T06:38:26;20.35;;;10.68;;
27201;SDS011;14717;46.924;15.474;2022-12-18T06:40:52;20.42;;;9.77;;
27201;SDS011;14717;46.924;15.474;2022-12-18T06:43:17;22.13;;;9.98;;
27201;SDS011;14717;46.924;15.474;2022-12-18T06:45:43;18.25;;;8.50;;
27201;SDS011;14717;46.924;15.474;2022-12-18T06:48:08;20.05;;;9.52;;
27201;SDS011;14717;46.924;15.474;2022-12-18T06:50:33;23.75;;;10.25;;
27201;SDS011;14717;46.924;15.474;2022-12-18T06:52:59;23.08;;;9.50;;
27201;SDS011;14717;46.924;15.474;2022-12-18T06:55:24;20.42;;;9.68;;
27201;SDS011;14717;46.924;15.474;2022-12-18T06:57:50;21.48;;;10.05;;
27201;SDS011;14717;46.924;15.474;2022-12-18T07:00:15;19.67;;;8.57;;
27201;SDS011;14717;46.924;15.474;2022-12-18T07:02:41;25.90;;;9.45;;
27201;SDS011;14717;46.924;15.474;2022-12-18T07:05:07;24.55;;;9.38;;
27201;SDS011;14717;46.924;15.474;2022-12-18T07:07:33;22.80;;;10.05;;
27201;SDS011;14717;46.924;15.474;2022-12-18T07:09:59;21.35;;;9.13;;
27201;SDS011;14717;46.924;15.474;2022-12-18T07:12:26;28.15;;;10.38;;
27201;SDS011;14717;46.924;15.474;2022-12-18T07:14:52;27.65;;;10.68;;
27201;SDS011;14717;46.924;15.474;2022-12-18T07:17:17;21.70;;;9.45;;
27201;SDS011;14717;46.924;15.474;2022-12-18T07:19:42;24.83;;;10.32;;
27201;SDS011;14717;46.924;15.474;2022-12-18T07:22:08;24.50;;;10.15;;
27201;SDS011;14717;46.924;15.474;2022-12-18T07:24:33;22.38;;;10.25;;
27201;SDS011;14717;46.924;15.474;2022-12-18T07:26:59;20.38;;;9.85;;
27201;SDS011;14717;46.924;15.474;2022-12-18T07:29:24;24.38;;;10.82;;
27201;SDS011;14717;46.924;15.474;2022-12-18T07:31:50;28.42;;;12.10;;
27201;SDS011;14717;46.924;15.474;2022-12-18T07:34:16;24.38;;;10.43;;
27201;SDS011;14717;46.924;15.474;2022-12-18T07:36:41;26.55;;;10.68;;
27201;SDS011;14717;46.924;15.474;2022-12-18T07:39:07;31.52;;;11.75;;
27201;SDS011;14717;46.924;15.474;2022-12-18T07:41:33;27.25;;;12.18;;
27201;SDS011;14717;46.924;15.474;2022-12-18T07:43:58;24.67;;;11.20;;
27201;SDS011;14717;46.924;15.474;2022-12-18T07:46:24;23.73;;;10.52;;
27201;SDS011;14717;46.924;15.474;2022-12-18T07:48:49;23.65;;;10.48;;
27201;SDS011;14717;46.924;15.474;2022-12-18T07:51:15;25.77;;;10.60;;
27201;SDS011;14717;46.924;15.474;2022-12-18T07:53:40;30.83;;;13.07;;
27201;SDS011;14717;46.924;15.474;2022-12-18T07:56:07;25.05;;;10.32;;
27201;SDS011;14717;46.924;15.474;2022-12-18T07:58:34;25.60;;;11.07;;
27201;SDS011;14717;46.924;15.474;2022-12-18T08:01:04;26.58;;;11.95;;
27201;SDS011;14717;46.924;15.474;2022-12-18T08:03:31;24.65;;;10.90;;
27201;SDS011;14717;46.924;15.474;2022-12-18T08:06:00;23.42;;;11.23;;
27201;SDS011;14717;46.924;15.474;2022-12-18T08:08:26;26.13;;;11.15;;
27201;SDS011;14717;46.924;15.474;2022-12-18T08:10:51;23.85;;;10.07;;
27201;SDS011;14717;46.924;15.474;2022-12-18T08:13:17;21.55;;;9.90;;
27201;SDS011;14717;46.924;15.474;2022-12-18T08:15:42;21.27;;;9.50;;
27201;SDS011;14717;46.924;15.474;2022-12-18T08:18:07;26.60;;;11.63;;
27201;SDS011;14717;46.924;15.474;2022-12-18T08:20:33;24.20;;;9.85;;
27201;SDS011;14717;46.924;15.474;2022-12-18T08:22:58;24.25;;;10.93;;
27201;SDS011;14717;46.924;15.474;2022-12-18T08:25:23;21.35;;;9.52;;
27201;SDS011;14717;46.924;15.474;2022-12-18T08:27:49;23.38;;;9.57;;
27201;SDS011;14717;46.924;15.474;2022-12-18T08:30:14;23.30;;;9.05;;
27201;SDS011;14717;46.924;15.474;2022-12-18T08:32:40;20.92;;;9.75;;
27201;SDS011;14717;46.924;15.474;2022-12-18T08:35:05;17.42;;;8.18;;
27201;SDS011;14717;46.924;15.474;2022-12-18T08:37:31;15.40;;;7.45;;
27201;SDS011;14717;46.924;15.474;2022-12-18T08:39:56;23.45;;;9.45;;
27201;SDS011;14717;46.924;15.474;2022-12-18T08:42:21;18.95;;;8.75;;
27201;SDS011;14717;46.924;15.474;2022-12-18T08:45:05;18.75;;;8.35;;
27201;SDS011;14717;46.924;15.474;2022-12-18T08:47:32;14.75;;;7.65;;
27201;SDS011;14717;46.924;15.474;2022-12-18T08:49:57;20.08;;;7.82;;
27201;SDS011;14717;46.924;15.474;2022-12-18T08:52:23;18.83;;;8.65;;
27201;SDS011;14717;46.924;15.474;2022-12-18T08:54:48;17.70;;;8.20;;
27201;SDS011;14717;46.924;15.474;2022-12-18T08:57:14;17.92;;;7.88;;
27201;SDS011;14717;46.924;15.474;2022-12-18T08:59:39;17.27;;;8.00;;
27201;SDS011;14717;46.924;15.474;2022-12-18T09:02:04;18.60;;;8.20;;
27201;SDS011;14717;46.924;15.474;2022-12-18T09:04:30;19.90;;;8.77;;
27201;SDS011;14717;46.924;15.474;2022-12-18T09:06:55;19.73;;;9.00;;
27201;SDS011;14717;46.924;15.474;2022-12-18T09:09:21;22.98;;;9.35;;
27201;SDS011;14717;46.924;15.474;2022-12-18T09:11:46;19.60;;;8.68;;
27201;SDS011;14717;46.924;15.474;2022-12-18T09:14:12;19.95;;;8.82;;
27201;SDS011;14717;46.924;15.474;2022-12-18T09:16:37;21.02;;;8.80;;
27201;SDS011;14717;46.924;15.474;2022-12-18T09:19:03;19.30;;;8.73;;
27201;SDS011;14717;46.924;15.474;2022-12-18T09:21:30;26.25;;;9.93;;
27201;SDS011;14717;46.924;15.474;2022-12-18T09:23:58;28.63;;;11.75;;
27201;SDS011;14717;46.924;15.474;2022-12-18T09:26:24;27.10;;;10.02;;
27201;SDS011;14717;46.924;15.474;2022-12-18T09:28:51;25.73;;;10.43;;
27201;SDS011;14717;46.924;15.474;2022-12-18T09:31:17;24.92;;;10.73;;
27201;SDS011;14717;46.924;15.474;2022-12-18T09:33:45;26.25;;;10.80;;
27201;SDS011;14717;46.924;15.474;2022-12-18T09:36:12;27.77;;;11.93;;
27201;SDS011;14717;46.924;15.474;2022-12-18T09:38:39;27.35;;;12.70;;
27201;SDS011;14717;46.924;15.474;2022-12-18T09:41:06;22.98;;;10.77;;
27201;SDS011;14717;46.924;15.474;2022-12-18T09:43:45;27.27;;;11.82;;
27201;SDS011;14717;46.924;15.474;2022-12-18T09:46:48;25.63;;;11.00;;
27201;SDS011;14717;46.924;15.474;2022-12-18T09:49:11;28.70;;;11.85;;
27201;SDS011;14717;46.924;15.474;2022-12-18T09:51:45;24.90;;;11.30;;
27201;SDS011;14717;46.924;15.474;2022-12-18T09:54:18;30.65;;;11.48;;
27201;SDS011;14717;46.924;15.474;2022-12-18T09:56:51;29.42;;;10.90;;
27201;SDS011;14717;46.924;15.474;2022-12-18T09:59:24;24.10;;;10.98;;
27201;SDS011;14717;46.924;15.474;2022-12-18T10:01:54;27.17;;;10.30;;
27201;SDS011;14717;46.924;15.474;2022-12-18T10:04:20;27.52;;;11.15;;
27201;SDS011;14717;46.924;15.474;2022-12-18T10:20:48;26.80;;;11.50;;
27201;SDS011;14717;46.924;15.474;2022-12-18T10:23:26;32.70;;;12.32;;
27201;SDS011;14717;46.924;15.474;2022-12-18T10:26:03;31.05;;;11.70;;
27201;SDS011;14717;46.924;15.474;2022-12-18T10:28:34;33.92;;;12.57;;
27201;SDS011;14717;46.924;15.474;2022-12-18T10:31:02;29.60;;;12.10;;
27201;SDS011;14717;46.924;15.474;2022-12-18T10:33:30;27.10;;;11.27;;
27201;SDS011;14717;46.924;15.474;2022-12-18T10:35:57;29.63;;;11.27;;
27201;SDS011;14717;46.924;15.474;2022-12-18T10:38:24;30.83;;;11.95;;
27201;SDS011;14717;46.924;15.474;2022-12-18T10:43:30;31.85;;;12.07;;
27201;SDS011;14717;46.924;15.474;2022-12-18T10:48:39;31.02;;;11.93;;
27201;SDS011;14717;46.924;15.474;2022-12-18T10:51:35;33.10;;;12.07;;
27201;SDS011;14717;46.924;15.474;2022-12-18T10:54:07;32.40;;;13.38;;
27201;SDS011;14717;46.924;15.474;2022-12-18T10:56:44;32.00;;;11.85;;
27201;SDS011;14717;46.924;15.474;2022-12-18T10:59:11;35.97;;;13.98;;
27201;SDS011;14717;46.924;15.474;2022-12-18T11:04:20;31.10;;;11.80;;
27201;SDS011;14717;46.924;15.474;2022-12-18T11:07:04;27.77;;;11.80;;
27201;SDS011;14717;46.924;15.474;2022-12-18T11:09:40;34.47;;;13.07;;
27201;SDS011;14717;46.924;15.474;2022-12-18T11:12:14;26.75;;;12.00;;
27201;SDS011;14717;46.924;15.474;2022-12-18T11:14:48;33.25;;;12.23;;
27201;SDS011;14717;46.924;15.474;2022-12-18T11:17:19;31.23;;;11.63;;
27201;SDS011;14717;46.924;15.474;2022-12-18T11:19:54;35.55;;;13.80;;
27201;SDS011;14717;46.924;15.474;2022-12-18T11:27:36;55.45;;;18.48;;
27201;SDS011;14717;46.924;15.474;2022-12-18T11:30:07;48.75;;;17.92;;
27201;SDS011;14717;46.924;15.474;2022-12-18T11:32:50;50.47;;;19.33;;
27201;SDS011;14717;46.924;15.474;2022-12-18T11:38:22;35.25;;;13.00;;
27201;SDS011;14717;46.924;15.474;2022-12-18T11:40:53;36.28;;;14.38;;
27201;SDS011;14717;46.924;15.474;2022-12-18T11:43:45;37.08;;;13.95;;
27201;SDS011;14717;46.924;15.474;2022-12-18T11:46:30;33.45;;;13.05;;
27201;SDS011;14717;46.924;15.474;2022-12-18T11:51:52;35.92;;;13.40;;
27201;SDS011;14717;46.924;15.474;2022-12-18T11:54:22;34.22;;;12.80;;
27201;SDS011;14717;46.924;15.474;2022-12-18T11:56:49;34.22;;;13.23;;
27201;SDS011;14717;46.924;15.474;2022-12-18T12:15:39;34.65;;;12.27;;
27201;SDS011;14717;46.924;15.474;2022-12-18T12:34:26;36.50;;;14.68;;
27201;SDS011;14717;46.924;15.474;2022-12-18T12:40:16;35.90;;;12.73;;
27201;SDS011;14717;46.924;15.474;2022-12-18T12:42:52;36.97;;;13.10;;
27201;SDS011;14717;46.924;15.474;2022-12-18T12:45:41;37.47;;;14.75;;
27201;SDS011;14717;46.924;15.474;2022-12-18T12:48:17;36.70;;;13.45;;
27201;SDS011;14717;46.924;15.474;2022-12-18T12:50:56;37.55;;;13.57;;
27201;SDS011;14717;46.924;15.474;2022-12-18T12:53:26;36.97;;;13.45;;
27201;SDS011;14717;46.924;15.474;2022-12-18T12:55:57;27.92;;;12.18;;
27201;SDS011;14717;46.924;15.474;2022-12-18T12:58:42;32.97;;;12.95;;
27201;SDS011;14717;46.924;15.474;2022-12-18T13:01:32;35.30;;;12.02;;
27201;SDS011;14717;46.924;15.474;2022-12-18T13:04:20;35.53;;;13.65;;
27201;SDS011;14717;46.924;15.474;2022-12-18T13:07:06;31.35;;;12.32;;
27201;SDS011;14717;46.924;15.474;2022-12-18T13:15:40;28.33;;;12.10;;
27201;SDS011;14717;46.924;15.474;2022-12-18T13:20:40;32.67;;;12.23;;
27201;SDS011;14717;46.924;15.474;2022-12-18T13:25:59;42.28;;;14.35;;
27201;SDS011;14717;46.924;15.474;2022-12-18T13:31:15;34.60;;;12.40;;
27201;SDS011;14717;46.924;15.474;2022-12-18T13:36:47;33.55;;;13.27;;
27201;SDS011;14717;46.924;15.474;2022-12-18T13:41:42;29.77;;;11.13;;
27201;SDS011;14717;46.924;15.474;2022-12-18T13:44:11;27.98;;;11.30;;
27201;SDS011;14717;46.924;15.474;2022-12-18T13:46:54;36.15;;;12.27;;
27201;SDS011;14717;46.924;15.474;2022-12-18T13:52:19;32.13;;;12.18;;
27201;SDS011;14717;46.924;15.474;2022-12-18T13:54:59;28.05;;;11.27;;
27201;SDS011;14717;46.924;15.474;2022-12-18T13:57:27;29.73;;;12.02;;
27201;SDS011;14717;46.924;15.474;2022-12-18T13:59:59;31.38;;;13.07;;
27201;SDS011;14717;46.924;15.474;2022-12-18T14:02:57;37.03;;;13.02;;
27201;SDS011;14717;46.924;15.474;2022-12-18T14:08:01;25.40;;;10.30;;
27201;SDS011;14717;46.924;15.474;2022-12-18T14:10:30;31.27;;;12.00;;
27201;SDS011;14717;46.924;15.474;2022-12-18T14:12:55;27.38;;;9.98;;
27201;SDS011;14717;46.924;15.474;2022-12-18T14:15:30;29.65;;;12.57;;
27201;SDS011;14717;46.924;15.474;2022-12-18T14:18:01;27.60;;;11.02;;
27201;SDS011;14717;46.924;15.474;2022-12-18T14:20:44;28.67;;;11.00;;
27201;SDS011;14717;46.924;15.474;2022-12-18T14:26:02;28.85;;;11.57;;
27201;SDS011;14717;46.924;15.474;2022-12-18T14:28:48;28.85;;;11.32;;
27201;SDS011;14717;46.924;15.474;2022-12-18T14:31:20;32.30;;;12.20;;
27201;SDS011;14717;46.924;15.474;2022-12-18T14:33:47;23.80;;;10.00;;
27201;SDS011;14717;46.924;15.474;2022-12-18T14:36:15;34.40;;;12.63;;
27201;SDS011;14717;46.924;15.474;2022-12-18T14:38:42;30.05;;;11.10;;
27201;SDS011;14717;46.924;15.474;2022-12-18T14:41:14;34.60;;;13.10;;
27201;SDS011;14717;46.924;15.474;2022-12-18T14:43:42;34.90;;;12.07;;
27201;SDS011;14717;46.924;15.474;2022-12-18T14:51:41;30.60;;;11.60;;
27201;SDS011;14717;46.924;15.474;2022-12-18T14:54:19;26.42;;;11.30;;
27201;SDS011;14717;46.924;15.474;2022-12-18T14:56:47;30.05;;;11.55;;
27201;SDS011;14717;46.924;15.474;2022-12-18T15:04:23;30.35;;;11.93;;
27201;SDS011;14717;46.924;15.474;2022-12-18T15:06:50;31.58;;;12.57;;
27201;SDS011;14717;46.924;15.474;2022-12-18T15:09:29;34.53;;;13.00;;
27201;SDS011;14717;46.924;15.474;2022-12-18T15:11:56;29.20;;;12.35;;
27201;SDS011;14717;46.924;15.474;2022-12-18T15:14:38;30.52;;;12.90;;
27201;SDS011;14717;46.924;15.474;2022-12-18T15:17:06;27.98;;;11.98;;
27201;SDS011;14717;46.924;15.474;2022-12-18T15:19:44;30.10;;;11.52;;
27201;SDS011;14717;46.924;15.474;2022-12-18T15:24:53;30.52;;;11.82;;
27201;SDS011;14717;46.924;15.474;2022-12-18T15:27:23;28.42;;;11.65;;
27201;SDS011;14717;46.924;15.474;2022-12-18T15:32:39;22.40;;;10.23;;
27201;SDS011;14717;46.924;15.474;2022-12-18T15:35:11;25.40;;;9.52;;
27201;SDS011;14717;46.924;15.474;2022-12-18T15:37:40;20.95;;;8.90;;
27201;SDS011;14717;46.924;15.474;2022-12-18T15:40:06;25.52;;;10.48;;
27201;SDS011;14717;46.924;15.474;2022-12-18T15:42:33;25.90;;;10.43;;
27201;SDS011;14717;46.924;15.474;2022-12-18T15:45:17;25.83;;;11.13;;
27201;SDS011;14717;46.924;15.474;2022-12-18T15:47:44;27.50;;;10.82;;
27201;SDS011;14717;46.924;15.474;2022-12-18T15:50:10;27.50;;;10.23;;
27201;SDS011;14717;46.924;15.474;2022-12-18T15:52:41;24.42;;;10.68;;
27201;SDS011;14717;46.924;15.474;2022-12-18T15:55:12;25.10;;;10.63;;
27201;SDS011;14717;46.924;15.474;2022-12-18T15:57:57;23.30;;;9.50;;
27201;SDS011;14717;46.924;15.474;2022-12-18T16:00:23;28.50;;;10.40;;
27201;SDS011;14717;46.924;15.474;2022-12-18T16:02:49;30.50;;;11.85;;
27201;SDS011;14717;46.924;15.474;2022-12-18T16:05:15;23.58;;;10.18;;
27201;SDS011;14717;46.924;15.474;2022-12-18T16:07:42;23.27;;;9.95;;
27201;SDS011;14717;46.924;15.474;2022-12-18T16:10:08;23.13;;;10.50;;
27201;SDS011;14717;46.924;15.474;2022-12-18T16:12:33;24.02;;;10.15;;
27201;SDS011;14717;46.924;15.474;2022-12-18T16:14:58;23.30;;;9.73;;
27201;SDS011;14717;46.924;15.474;2022-12-18T16:17:24;23.20;;;9.35;;
27201;SDS011;14717;46.924;15.474;2022-12-18T16:19:49;27.20;;;11.75;;
27201;SDS011;14717;46.924;15.474;2022-12-18T16:22:21;24.00;;;10.30;;
27201;SDS011;14717;46.924;15.474;2022-12-18T16:24:52;25.25;;;13.05;;
27201;SDS011;14717;46.924;15.474;2022-12-18T16:27:18;29.85;;;13.82;;
27201;SDS011;14717;46.924;15.474;2022-12-18T16:29:44;28.55;;;12.32;;
27201;SDS011;14717;46.924;15.474;2022-12-18T16:32:14;28.75;;;11.52;;
27201;SDS011;14717;46.924;15.474;2022-12-18T16:34:42;25.83;;;10.70;;
27201;SDS011;14717;46.924;15.474;2022-12-18T16:37:09;23.10;;;11.30;;
27201;SDS011;14717;46.924;15.474;2022-12-18T16:39:36;27.88;;;11.60;;
27201;SDS011;14717;46.924;15.474;2022-12-18T16:42:08;28.15;;;11.07;;
27201;SDS011;14717;46.924;15.474;2022-12-18T16:44:46;25.70;;;10.70;;
27201;SDS011;14717;46.924;15.474;2022-12-18T16:47:13;26.15;;;10.73;;
27201;SDS011;14717;46.924;15.474;2022-12-18T16:49:38;24.75;;;10.27;;
27201;SDS011;14717;46.924;15.474;2022-12-18T16:52:05;28.52;;;13.32;;
27201;SDS011;14717;46.924;15.474;2022-12-18T16:54:31;32.50;;;17.45;;
27201;SDS011;14717;46.924;15.474;2022-12-18T16:57:00;33.28;;;16.92;;
27201;SDS011;14717;46.924;15.474;2022-12-18T16:59:25;29.30;;;12.05;;
27201;SDS011;14717;46.924;15.474;2022-12-18T17:01:52;26.10;;;10.88;;
27201;SDS011;14717;46.924;15.474;2022-12-18T17:04:20;23.45;;;9.57;;
27201;SDS011;14717;46.924;15.474;2022-12-18T17:06:46;21.02;;;8.82;;